sensor_id;sensor_type;location;lat;lon;timestamp;temperature;humidity
19555;DHT22;9924;50.828;6.440;2022-07-25T00:00:40;20.70;99.90
19555;DHT22;9924;50.828;6.440;2022-07-25T00:03:06;20.70;99.90
19555;DHT22;9924;50.828;6.440;2022-07-25T00:05:33;20.70;99.90
19555;DHT22;9924;50.828;6.440;2022-07-25T00:07:59;20.60;99.90
19555;DHT22;9924;50.828;6.440;2022-07-25T00:10:25;20.50;99.90
19555;DHT22;9924;50.828;6.440;2022-07-25T00:12:50;20.50;99.90
19555;DHT22;9924;50.828;6.440;2022-07-25T00:15:16;20.50;99.90
19555;DHT22;9924;50.828;6.440;2022-07-25T00:17:42;20.40;99.90
19555;DHT22;9924;50.828;6.440;2022-07-25T00:20:08;20.40;99.90
19555;DHT22;9924;50.828;6.440;2022-07-25T00:22:34;20.40;99.90
19555;DHT22;9924;50.828;6.440;2022-07-25T00:25:00;20.40;99.90
19555;DHT22;9924;50.828;6.440;2022-07-25T00:27:26;20.40;99.90
19555;DHT22;9924;50.828;6.440;2022-07-25T00:29:52;20.40;99.90
19555;DHT22;9924;50.828;6.440;2022-07-25T00:32:17;20.40;99.90
19555;DHT22;9924;50.828;6.440;2022-07-25T00:34:43;20.50;99.90
19555;DHT22;9924;50.828;6.440;2022-07-25T00:37:09;20.50;99.90
19555;DHT22;9924;50.828;6.440;2022-07-25T00:39:35;20.60;99.90
19555;DHT22;9924;50.828;6.440;2022-07-25T00:42:00;20.60;99.90
19555;DHT22;9924;50.828;6.440;2022-07-25T00:44:30;20.60;99.90
19555;DHT22;9924;50.828;6.440;2022-07-25T00:46:57;20.50;99.90
19555;DHT22;9924;50.828;6.440;2022-07-25T00:49:23;20.50;99.90
19555;DHT22;9924;50.828;6.440;2022-07-25T00:51:51;20.50;99.90
19555;DHT22;9924;50.828;6.440;2022-07-25T00:54:17;20.50;99.90
19555;DHT22;9924;50.828;6.440;2022-07-25T00:56:43;20.40;99.90
19555;DHT22;9924;50.828;6.440;2022-07-25T00:59:09;20.50;99.90
19555;DHT22;9924;50.828;6.440;2022-07-25T01:01:36;20.50;99.90
19555;DHT22;9924;50.828;6.440;2022-07-25T01:04:03;20.40;99.90
19555;DHT22;9924;50.828;6.440;2022-07-25T01:06:30;20.40;99.90
19555;DHT22;9924;50.828;6.440;2022-07-25T01:08:56;20.40;99.90
19555;DHT22;9924;50.828;6.440;2022-07-25T01:11:22;20.40;99.90
19555;DHT22;9924;50.828;6.440;2022-07-25T01:13:48;20.30;99.90
19555;DHT22;9924;50.828;6.440;2022-07-25T01:16:14;20.20;99.90
19555;DHT22;9924;50.828;6.440;2022-07-25T01:18:40;20.10;99.90
19555;DHT22;9924;50.828;6.440;2022-07-25T01:21:06;20.20;99.90
19555;DHT22;9924;50.828;6.440;2022-07-25T01:23:32;20.20;99.90
19555;DHT22;9924;50.828;6.440;2022-07-25T01:25:57;20.20;99.90
19555;DHT22;9924;50.828;6.440;2022-07-25T01:28:23;20.20;99.90
19555;DHT22;9924;50.828;6.440;2022-07-25T01:30:49;20.10;99.90
19555;DHT22;9924;50.828;6.440;2022-07-25T01:33:16;20.10;99.90
19555;DHT22;9924;50.828;6.440;2022-07-25T01:35:43;20.20;99.90
19555;DHT22;9924;50.828;6.440;2022-07-25T01:38:09;20.20;99.90
19555;DHT22;9924;50.828;6.440;2022-07-25T01:40:35;20.20;99.90
19555;DHT22;9924;50.828;6.440;2022-07-25T01:43:00;20.20;99.90
19555;DHT22;9924;50.828;6.440;2022-07-25T01:45:26;20.10;99.90
19555;DHT22;9924;50.828;6.440;2022-07-25T01:47:52;20.00;99.90
19555;DHT22;9924;50.828;6.440;2022-07-25T01:50:18;19.90;99.90
19555;DHT22;9924;50.828;6.440;2022-07-25T01:52:43;20.00;99.90
19555;DHT22;9924;50.828;6.440;2022-07-25T01:55:09;20.00;99.90
19555;DHT22;9924;50.828;6.440;2022-07-25T01:57:36;20.10;99.90
19555;DHT22;9924;50.828;6.440;2022-07-25T02:00:04;20.20;99.90
19555;DHT22;9924;50.828;6.440;2022-07-25T02:02:30;20.30;99.90
19555;DHT22;9924;50.828;6.440;2022-07-25T02:04:56;20.30;99.90
19555;DHT22;9924;50.828;6.440;2022-07-25T02:07:21;20.40;99.90
19555;DHT22;9924;50.828;6.440;2022-07-25T02:09:47;20.40;99.90
19555;DHT22;9924;50.828;6.440;2022-07-25T02:12:13;20.50;99.90
19555;DHT22;9924;50.828;6.440;2022-07-25T02:14:38;20.60;99.90
19555;DHT22;9924;50.828;6.440;2022-07-25T02:17:05;20.50;99.90
19555;DHT22;9924;50.828;6.440;2022-07-25T02:19:31;20.50;99.90
19555;DHT22;9924;50.828;6.440;2022-07-25T02:21:57;20.50;99.90
19555;DHT22;9924;50.828;6.440;2022-07-25T02:24:22;20.40;99.90
19555;DHT22;9924;50.828;6.440;2022-07-25T02:26:48;20.30;99.90
19555;DHT22;9924;50.828;6.440;2022-07-25T02:29:14;20.20;99.90
19555;DHT22;9924;50.828;6.440;2022-07-25T02:31:40;20.20;99.90
19555;DHT22;9924;50.828;6.440;2022-07-25T02:34:06;20.20;99.90
19555;DHT22;9924;50.828;6.440;2022-07-25T02:36:31;20.20;99.90
19555;DHT22;9924;50.828;6.440;2022-07-25T02:38:57;20.20;99.90
19555;DHT22;9924;50.828;6.440;2022-07-25T02:41:23;20.20;99.90
19555;DHT22;9924;50.828;6.440;2022-07-25T02:43:49;20.10;99.90
19555;DHT22;9924;50.828;6.440;2022-07-25T02:46:14;20.00;99.90
19555;DHT22;9924;50.828;6.440;2022-07-25T02:48:40;20.00;99.90
19555;DHT22;9924;50.828;6.440;2022-07-25T02:51:06;19.90;99.90
19555;DHT22;9924;50.828;6.440;2022-07-25T02:53:31;19.80;99.90
19555;DHT22;9924;50.828;6.440;2022-07-25T02:55:57;19.70;99.90
19555;DHT22;9924;50.828;6.440;2022-07-25T02:58:23;19.70;99.90
19555;DHT22;9924;50.828;6.440;2022-07-25T03:00:48;19.60;99.90
19555;DHT22;9924;50.828;6.440;2022-07-25T03:03:14;19.60;99.90
19555;DHT22;9924;50.828;6.440;2022-07-25T03:05:40;19.60;99.90
19555;DHT22;9924;50.828;6.440;2022-07-25T03:08:05;19.60;99.90
19555;DHT22;9924;50.828;6.440;2022-07-25T03:10:31;19.50;99.90
19555;DHT22;9924;50.828;6.440;2022-07-25T03:12:58;19.60;99.90
19555;DHT22;9924;50.828;6.440;2022-07-25T03:15:24;19.60;99.90
19555;DHT22;9924;50.828;6.440;2022-07-25T03:17:50;19.60;99.90
19555;DHT22;9924;50.828;6.440;2022-07-25T03:20:15;19.60;99.90
19555;DHT22;9924;50.828;6.440;2022-07-25T03:22:42;19.50;99.90
19555;DHT22;9924;50.828;6.440;2022-07-25T03:25:07;19.50;99.90
19555;DHT22;9924;50.828;6.440;2022-07-25T03:27:33;19.60;99.90
19555;DHT22;9924;50.828;6.440;2022-07-25T03:29:59;19.60;99.90
19555;DHT22;9924;50.828;6.440;2022-07-25T03:32:25;19.60;99.90
19555;DHT22;9924;50.828;6.440;2022-07-25T03:34:51;19.60;99.90
19555;DHT22;9924;50.828;6.440;2022-07-25T03:37:17;19.40;99.90
19555;DHT22;9924;50.828;6.440;2022-07-25T03:39:42;19.40;99.90
19555;DHT22;9924;50.828;6.440;2022-07-25T03:42:08;19.40;99.90
19555;DHT22;9924;50.828;6.440;2022-07-25T03:44:34;19.40;99.90
19555;DHT22;9924;50.828;6.440;2022-07-25T03:47:02;19.50;99.90
19555;DHT22;9924;50.828;6.440;2022-07-25T03:49:28;19.60;99.90
19555;DHT22;9924;50.828;6.440;2022-07-25T03:51:54;19.70;99.90
19555;DHT22;9924;50.828;6.440;2022-07-25T03:54:20;19.70;99.90
19555;DHT22;9924;50.828;6.440;2022-07-25T03:56:48;19.80;99.90
19555;DHT22;9924;50.828;6.440;2022-07-25T03:59:16;19.90;99.90
19555;DHT22;9924;50.828;6.440;2022-07-25T04:01:42;19.90;99.90
19555;DHT22;9924;50.828;6.440;2022-07-25T04:04:09;20.00;99.90
19555;DHT22;9924;50.828;6.440;2022-07-25T04:06:35;20.00;99.90
19555;DHT22;9924;50.828;6.440;2022-07-25T04:09:01;20.00;99.90
19555;DHT22;9924;50.828;6.440;2022-07-25T04:11:27;20.00;99.90
19555;DHT22;9924;50.828;6.440;2022-07-25T04:13:55;20.10;99.90
19555;DHT22;9924;50.828;6.440;2022-07-25T04:16:22;20.20;99.90
19555;DHT22;9924;50.828;6.440;2022-07-25T04:18:48;20.30;99.90
19555;DHT22;9924;50.828;6.440;2022-07-25T04:21:14;20.40;99.90
19555;DHT22;9924;50.828;6.440;2022-07-25T04:23:39;20.50;99.90
19555;DHT22;9924;50.828;6.440;2022-07-25T04:26:05;20.60;99.90
19555;DHT22;9924;50.828;6.440;2022-07-25T04:28:31;20.60;99.90
19555;DHT22;9924;50.828;6.440;2022-07-25T04:30:57;20.70;99.90
19555;DHT22;9924;50.828;6.440;2022-07-25T04:33:23;20.80;99.90
19555;DHT22;9924;50.828;6.440;2022-07-25T04:35:49;20.90;99.90
19555;DHT22;9924;50.828;6.440;2022-07-25T04:38:15;21.00;99.90
19555;DHT22;9924;50.828;6.440;2022-07-25T04:40:41;21.10;99.90
19555;DHT22;9924;50.828;6.440;2022-07-25T04:43:07;21.30;99.90
19555;DHT22;9924;50.828;6.440;2022-07-25T04:45:33;21.50;99.90
19555;DHT22;9924;50.828;6.440;2022-07-25T04:48:00;21.60;99.90
19555;DHT22;9924;50.828;6.440;2022-07-25T04:50:26;21.80;99.90
19555;DHT22;9924;50.828;6.440;2022-07-25T04:52:52;21.90;99.90
19555;DHT22;9924;50.828;6.440;2022-07-25T04:55:18;22.10;99.90
19555;DHT22;9924;50.828;6.440;2022-07-25T04:57:44;22.30;99.90
19555;DHT22;9924;50.828;6.440;2022-07-25T05:00:12;22.40;99.90
19555;DHT22;9924;50.828;6.440;2022-07-25T05:02:38;22.60;99.90
19555;DHT22;9924;50.828;6.440;2022-07-25T05:05:04;22.60;99.90
19555;DHT22;9924;50.828;6.440;2022-07-25T05:07:30;22.70;99.90
19555;DHT22;9924;50.828;6.440;2022-07-25T05:09:56;22.80;99.90
19555;DHT22;9924;50.828;6.440;2022-07-25T05:12:22;22.90;99.90
19555;DHT22;9924;50.828;6.440;2022-07-25T05:14:47;22.90;99.90
19555;DHT22;9924;50.828;6.440;2022-07-25T05:17:13;23.00;99.90
19555;DHT22;9924;50.828;6.440;2022-07-25T05:19:39;23.00;99.90
19555;DHT22;9924;50.828;6.440;2022-07-25T05:22:05;23.10;99.90
19555;DHT22;9924;50.828;6.440;2022-07-25T05:24:34;23.20;99.90
19555;DHT22;9924;50.828;6.440;2022-07-25T05:27:00;23.30;99.90
19555;DHT22;9924;50.828;6.440;2022-07-25T05:29:26;23.40;99.90
19555;DHT22;9924;50.828;6.440;2022-07-25T05:31:52;23.60;99.90
19555;DHT22;9924;50.828;6.440;2022-07-25T05:34:18;23.70;99.90
19555;DHT22;9924;50.828;6.440;2022-07-25T05:36:44;23.90;99.90
19555;DHT22;9924;50.828;6.440;2022-07-25T05:39:10;24.10;99.90
19555;DHT22;9924;50.828;6.440;2022-07-25T05:41:35;24.30;99.90
19555;DHT22;9924;50.828;6.440;2022-07-25T05:44:01;24.50;99.90
19555;DHT22;9924;50.828;6.440;2022-07-25T05:46:27;24.80;99.90
19555;DHT22;9924;50.828;6.440;2022-07-25T05:48:53;25.10;99.90
19555;DHT22;9924;50.828;6.440;2022-07-25T05:51:19;25.30;99.90
19555;DHT22;9924;50.828;6.440;2022-07-25T05:53:45;25.50;99.90
19555;DHT22;9924;50.828;6.440;2022-07-25T05:56:10;25.60;99.90
19555;DHT22;9924;50.828;6.440;2022-07-25T05:58:36;25.80;99.90
19555;DHT22;9924;50.828;6.440;2022-07-25T06:01:06;26.00;99.90
19555;DHT22;9924;50.828;6.440;2022-07-25T06:03:32;26.20;99.90
19555;DHT22;9924;50.828;6.440;2022-07-25T06:05:59;26.30;99.90
19555;DHT22;9924;50.828;6.440;2022-07-25T06:08:25;26.40;99.90
19555;DHT22;9924;50.828;6.440;2022-07-25T06:10:53;26.50;99.90
19555;DHT22;9924;50.828;6.440;2022-07-25T06:13:19;26.60;99.90
19555;DHT22;9924;50.828;6.440;2022-07-25T06:15:45;26.70;99.90
19555;DHT22;9924;50.828;6.440;2022-07-25T06:18:11;26.70;99.90
19555;DHT22;9924;50.828;6.440;2022-07-25T06:20:36;26.70;99.90
19555;DHT22;9924;50.828;6.440;2022-07-25T06:23:02;26.70;99.90
19555;DHT22;9924;50.828;6.440;2022-07-25T06:25:29;26.70;99.90
19555;DHT22;9924;50.828;6.440;2022-07-25T06:27:55;26.80;99.90
19555;DHT22;9924;50.828;6.440;2022-07-25T06:30:21;26.80;99.90
19555;DHT22;9924;50.828;6.440;2022-07-25T06:32:48;26.80;99.90
19555;DHT22;9924;50.828;6.440;2022-07-25T06:35:14;26.90;99.90
19555;DHT22;9924;50.828;6.440;2022-07-25T06:37:40;26.90;99.90
19555;DHT22;9924;50.828;6.440;2022-07-25T06:40:07;26.90;99.90
19555;DHT22;9924;50.828;6.440;2022-07-25T06:42:40;27.00;99.90
19555;DHT22;9924;50.828;6.440;2022-07-25T06:45:07;27.00;99.90
19555;DHT22;9924;50.828;6.440;2022-07-25T06:47:37;27.10;99.90
19555;DHT22;9924;50.828;6.440;2022-07-25T06:50:04;27.10;99.90
19555;DHT22;9924;50.828;6.440;2022-07-25T06:52:30;27.20;99.90
19555;DHT22;9924;50.828;6.440;2022-07-25T06:54:56;27.30;99.90
19555;DHT22;9924;50.828;6.440;2022-07-25T06:57:22;27.50;99.90
19555;DHT22;9924;50.828;6.440;2022-07-25T06:59:48;27.50;99.90
19555;DHT22;9924;50.828;6.440;2022-07-25T07:02:14;27.60;99.90
19555;DHT22;9924;50.828;6.440;2022-07-25T07:04:40;27.70;99.90
19555;DHT22;9924;50.828;6.440;2022-07-25T07:07:06;27.80;99.90
19555;DHT22;9924;50.828;6.440;2022-07-25T07:09:32;28.00;99.90
19555;DHT22;9924;50.828;6.440;2022-07-25T07:11:57;28.10;99.90
19555;DHT22;9924;50.828;6.440;2022-07-25T07:14:23;28.20;99.90
19555;DHT22;9924;50.828;6.440;2022-07-25T07:16:49;28.40;99.90
19555;DHT22;9924;50.828;6.440;2022-07-25T07:19:15;28.40;99.90
19555;DHT22;9924;50.828;6.440;2022-07-25T07:21:41;28.40;99.90
19555;DHT22;9924;50.828;6.440;2022-07-25T07:24:07;28.50;99.90
19555;DHT22;9924;50.828;6.440;2022-07-25T07:26:33;28.60;99.90
19555;DHT22;9924;50.828;6.440;2022-07-25T07:28:59;28.80;99.90
19555;DHT22;9924;50.828;6.440;2022-07-25T07:31:26;28.90;99.90
19555;DHT22;9924;50.828;6.440;2022-07-25T07:33:51;28.80;99.90
19555;DHT22;9924;50.828;6.440;2022-07-25T07:36:17;28.80;99.90
19555;DHT22;9924;50.828;6.440;2022-07-25T07:38:43;28.80;99.90
19555;DHT22;9924;50.828;6.440;2022-07-25T07:41:10;28.80;99.90
19555;DHT22;9924;50.828;6.440;2022-07-25T07:43:36;28.80;99.90
19555;DHT22;9924;50.828;6.440;2022-07-25T07:46:02;28.60;99.90
19555;DHT22;9924;50.828;6.440;2022-07-25T07:48:28;28.60;99.90
19555;DHT22;9924;50.828;6.440;2022-07-25T07:50:54;28.50;99.90
19555;DHT22;9924;50.828;6.440;2022-07-25T07:53:20;28.40;99.90
19555;DHT22;9924;50.828;6.440;2022-07-25T07:55:46;28.30;99.90
19555;DHT22;9924;50.828;6.440;2022-07-25T07:58:20;28.20;99.90
19555;DHT22;9924;50.828;6.440;2022-07-25T08:00:49;28.10;99.90
19555;DHT22;9924;50.828;6.440;2022-07-25T08:03:17;28.10;99.90
19555;DHT22;9924;50.828;6.440;2022-07-25T08:05:44;28.00;99.90
19555;DHT22;9924;50.828;6.440;2022-07-25T08:08:13;28.00;99.90
19555;DHT22;9924;50.828;6.440;2022-07-25T08:10:44;27.90;99.90
19555;DHT22;9924;50.828;6.440;2022-07-25T08:13:15;27.90;99.90
19555;DHT22;9924;50.828;6.440;2022-07-25T08:15:43;27.80;99.90
19555;DHT22;9924;50.828;6.440;2022-07-25T08:18:09;27.80;99.90
19555;DHT22;9924;50.828;6.440;2022-07-25T08:20:35;27.70;99.90
19555;DHT22;9924;50.828;6.440;2022-07-25T08:23:02;27.60;99.90
19555;DHT22;9924;50.828;6.440;2022-07-25T08:25:28;27.50;99.90
19555;DHT22;9924;50.828;6.440;2022-07-25T08:27:54;27.30;99.90
19555;DHT22;9924;50.828;6.440;2022-07-25T08:30:20;27.20;99.90
19555;DHT22;9924;50.828;6.440;2022-07-25T08:32:54;27.10;99.90
19555;DHT22;9924;50.828;6.440;2022-07-25T08:35:21;27.10;99.90
19555;DHT22;9924;50.828;6.440;2022-07-25T08:37:47;27.10;99.90
19555;DHT22;9924;50.828;6.440;2022-07-25T08:40:15;27.20;99.90
19555;DHT22;9924;50.828;6.440;2022-07-25T08:42:41;27.40;99.90
19555;DHT22;9924;50.828;6.440;2022-07-25T08:45:08;27.70;99.90
19555;DHT22;9924;50.828;6.440;2022-07-25T08:47:35;28.10;99.90
19555;DHT22;9924;50.828;6.440;2022-07-25T08:50:03;28.60;99.90
19555;DHT22;9924;50.828;6.440;2022-07-25T08:52:30;29.30;99.90
19555;DHT22;9924;50.828;6.440;2022-07-25T08:55:00;29.80;99.90
19555;DHT22;9924;50.828;6.440;2022-07-25T08:57:27;30.20;99.90
19555;DHT22;9924;50.828;6.440;2022-07-25T08:59:58;30.20;99.90
19555;DHT22;9924;50.828;6.440;2022-07-25T09:02:28;29.90;99.90
19555;DHT22;9924;50.828;6.440;2022-07-25T09:04:56;29.70;99.90
19555;DHT22;9924;50.828;6.440;2022-07-25T09:07:39;29.70;99.90
19555;DHT22;9924;50.828;6.440;2022-07-25T09:12:41;29.70;99.90
19555;DHT22;9924;50.828;6.440;2022-07-25T09:15:08;29.80;99.90
19555;DHT22;9924;50.828;6.440;2022-07-25T09:17:36;29.50;99.90
19555;DHT22;9924;50.828;6.440;2022-07-25T09:20:03;29.00;99.90
19555;DHT22;9924;50.828;6.440;2022-07-25T09:22:41;28.70;99.90
19555;DHT22;9924;50.828;6.440;2022-07-25T09:25:19;28.50;99.90
19555;DHT22;9924;50.828;6.440;2022-07-25T09:27:45;28.20;99.90
19555;DHT22;9924;50.828;6.440;2022-07-25T09:30:14;28.10;99.90
19555;DHT22;9924;50.828;6.440;2022-07-25T09:32:43;27.90;99.90
19555;DHT22;9924;50.828;6.440;2022-07-25T09:35:09;27.70;99.90
19555;DHT22;9924;50.828;6.440;2022-07-25T09:37:35;27.40;99.90
19555;DHT22;9924;50.828;6.440;2022-07-25T09:40:10;27.20;99.90
19555;DHT22;9924;50.828;6.440;2022-07-25T09:42:36;27.00;99.90
19555;DHT22;9924;50.828;6.440;2022-07-25T09:45:08;26.90;99.90
19555;DHT22;9924;50.828;6.440;2022-07-25T09:50:16;26.60;99.90
19555;DHT22;9924;50.828;6.440;2022-07-25T09:52:43;26.40;99.90
19555;DHT22;9924;50.828;6.440;2022-07-25T09:55:10;26.20;99.90
19555;DHT22;9924;50.828;6.440;2022-07-25T09:57:38;26.00;99.90
19555;DHT22;9924;50.828;6.440;2022-07-25T10:00:05;25.80;99.90
19555;DHT22;9924;50.828;6.440;2022-07-25T10:02:47;25.70;99.90
19555;DHT22;9924;50.828;6.440;2022-07-25T10:07:50;25.40;99.90
19555;DHT22;9924;50.828;6.440;2022-07-25T10:10:30;25.20;99.90
19555;DHT22;9924;50.828;6.440;2022-07-25T10:13:04;25.10;99.90
19555;DHT22;9924;50.828;6.440;2022-07-25T10:15:41;25.10;99.90
19555;DHT22;9924;50.828;6.440;2022-07-25T10:18:07;25.10;99.90
19555;DHT22;9924;50.828;6.440;2022-07-25T10:20:34;25.20;99.90
19555;DHT22;9924;50.828;6.440;2022-07-25T10:23:00;25.40;99.90
19555;DHT22;9924;50.828;6.440;2022-07-25T10:25:26;25.60;99.90
19555;DHT22;9924;50.828;6.440;2022-07-25T10:27:59;25.90;99.90
19555;DHT22;9924;50.828;6.440;2022-07-25T10:30:39;26.10;99.90
19555;DHT22;9924;50.828;6.440;2022-07-25T10:35:37;26.30;99.90
19555;DHT22;9924;50.828;6.440;2022-07-25T10:38:04;26.50;99.90
19555;DHT22;9924;50.828;6.440;2022-07-25T10:43:17;26.80;99.90
19555;DHT22;9924;50.828;6.440;2022-07-25T10:45:52;26.80;99.90
19555;DHT22;9924;50.828;6.440;2022-07-25T10:48:27;26.90;99.90
19555;DHT22;9924;50.828;6.440;2022-07-25T10:51:02;26.80;99.90
19555;DHT22;9924;50.828;6.440;2022-07-25T10:56:21;27.00;99.90
19555;DHT22;9924;50.828;6.440;2022-07-25T10:58:50;27.10;99.90
19555;DHT22;9924;50.828;6.440;2022-07-25T11:01:34;27.40;99.90
19555;DHT22;9924;50.828;6.440;2022-07-25T11:04:11;27.50;99.90
19555;DHT22;9924;50.828;6.440;2022-07-25T11:06:40;27.60;99.90
19555;DHT22;9924;50.828;6.440;2022-07-25T11:09:18;27.70;99.90
19555;DHT22;9924;50.828;6.440;2022-07-25T11:11:46;27.70;99.90
19555;DHT22;9924;50.828;6.440;2022-07-25T11:14:15;27.70;99.90
19555;DHT22;9924;50.828;6.440;2022-07-25T11:16:42;27.80;99.90
19555;DHT22;9924;50.828;6.440;2022-07-25T11:21:51;28.00;99.90
19555;DHT22;9924;50.828;6.440;2022-07-25T11:24:17;28.20;99.90
19555;DHT22;9924;50.828;6.440;2022-07-25T11:26:51;28.20;99.90
19555;DHT22;9924;50.828;6.440;2022-07-25T11:29:22;28.30;99.90
19555;DHT22;9924;50.828;6.440;2022-07-25T11:32:05;28.60;99.90
19555;DHT22;9924;50.828;6.440;2022-07-25T11:34:36;29.00;99.90
19555;DHT22;9924;50.828;6.440;2022-07-25T11:37:04;29.30;99.90
19555;DHT22;9924;50.828;6.440;2022-07-25T11:39:34;29.70;99.90
19555;DHT22;9924;50.828;6.440;2022-07-25T11:42:06;30.00;99.90
19555;DHT22;9924;50.828;6.440;2022-07-25T11:44:38;30.30;99.90
19555;DHT22;9924;50.828;6.440;2022-07-25T11:47:09;30.50;99.60
19555;DHT22;9924;50.828;6.440;2022-07-25T11:49:47;31.00;98.60
19555;DHT22;9924;50.828;6.440;2022-07-25T11:52:30;31.60;97.70
19555;DHT22;9924;50.828;6.440;2022-07-25T11:55:01;31.60;97.70
19555;DHT22;9924;50.828;6.440;2022-07-25T11:57:29;31.60;97.40
19555;DHT22;9924;50.828;6.440;2022-07-25T11:59:57;31.50;98.00
19555;DHT22;9924;50.828;6.440;2022-07-25T12:02:32;31.80;97.00
19555;DHT22;9924;50.828;6.440;2022-07-25T12:07:42;32.60;96.80
19555;DHT22;9924;50.828;6.440;2022-07-25T12:10:17;32.70;95.70
19555;DHT22;9924;50.828;6.440;2022-07-25T12:12:48;32.70;96.10
19555;DHT22;9924;50.828;6.440;2022-07-25T12:15:25;32.60;96.30
19555;DHT22;9924;50.828;6.440;2022-07-25T12:17:53;32.50;96.20
19555;DHT22;9924;50.828;6.440;2022-07-25T12:20:24;32.50;96.20
19555;DHT22;9924;50.828;6.440;2022-07-25T12:22:52;32.30;96.60
19555;DHT22;9924;50.828;6.440;2022-07-25T12:25:19;32.20;96.60
19555;DHT22;9924;50.828;6.440;2022-07-25T12:27:44;32.10;96.80
19555;DHT22;9924;50.828;6.440;2022-07-25T12:30:11;32.30;97.40
19555;DHT22;9924;50.828;6.440;2022-07-25T12:32:37;32.20;97.00
19555;DHT22;9924;50.828;6.440;2022-07-25T12:35:08;31.90;97.50
19555;DHT22;9924;50.828;6.440;2022-07-25T12:37:35;31.60;97.60
19555;DHT22;9924;50.828;6.440;2022-07-25T12:40:01;31.60;97.60
19555;DHT22;9924;50.828;6.440;2022-07-25T12:42:26;31.70;97.40
19555;DHT22;9924;50.828;6.440;2022-07-25T12:44:55;31.50;98.00
19555;DHT22;9924;50.828;6.440;2022-07-25T12:47:22;31.50;97.80
19555;DHT22;9924;50.828;6.440;2022-07-25T12:49:48;31.50;97.80
19555;DHT22;9924;50.828;6.440;2022-07-25T12:52:14;31.40;97.90
19555;DHT22;9924;50.828;6.440;2022-07-25T12:54:40;31.70;98.00
19555;DHT22;9924;50.828;6.440;2022-07-25T12:57:06;31.60;98.00
19555;DHT22;9924;50.828;6.440;2022-07-25T12:59:32;31.70;97.90
19555;DHT22;9924;50.828;6.440;2022-07-25T13:01:58;31.90;97.00
19555;DHT22;9924;50.828;6.440;2022-07-25T13:04:24;31.60;97.20
19555;DHT22;9924;50.828;6.440;2022-07-25T13:06:56;31.40;97.50
19555;DHT22;9924;50.828;6.440;2022-07-25T13:09:23;31.20;98.00
19555;DHT22;9924;50.828;6.440;2022-07-25T13:11:49;30.90;97.70
19555;DHT22;9924;50.828;6.440;2022-07-25T13:14:15;30.80;98.40
19555;DHT22;9924;50.828;6.440;2022-07-25T13:16:45;30.90;98.10
19555;DHT22;9924;50.828;6.440;2022-07-25T13:19:12;30.80;98.10
19555;DHT22;9924;50.828;6.440;2022-07-25T13:21:38;30.70;98.30
19555;DHT22;9924;50.828;6.440;2022-07-25T13:24:04;31.10;97.70
19555;DHT22;9924;50.828;6.440;2022-07-25T13:26:32;31.10;98.00
19555;DHT22;9924;50.828;6.440;2022-07-25T13:28:58;30.80;97.90
19555;DHT22;9924;50.828;6.440;2022-07-25T13:31:24;30.40;98.10
19555;DHT22;9924;50.828;6.440;2022-07-25T13:33:50;30.10;98.40
19555;DHT22;9924;50.828;6.440;2022-07-25T13:36:16;29.90;98.70
19555;DHT22;9924;50.828;6.440;2022-07-25T13:38:43;29.80;99.20
19555;DHT22;9924;50.828;6.440;2022-07-25T13:41:11;29.70;98.70
19555;DHT22;9924;50.828;6.440;2022-07-25T13:43:37;29.60;99.30
19555;DHT22;9924;50.828;6.440;2022-07-25T13:46:04;29.50;99.00
19555;DHT22;9924;50.828;6.440;2022-07-25T13:48:30;30.00;98.50
19555;DHT22;9924;50.828;6.440;2022-07-25T13:50:57;30.40;97.70
19555;DHT22;9924;50.828;6.440;2022-07-25T13:53:23;30.80;96.80
19555;DHT22;9924;50.828;6.440;2022-07-25T13:55:49;30.90;96.80
19555;DHT22;9924;50.828;6.440;2022-07-25T13:58:15;31.10;97.10
19555;DHT22;9924;50.828;6.440;2022-07-25T14:00:41;30.90;97.10
19555;DHT22;9924;50.828;6.440;2022-07-25T14:03:07;30.50;97.40
19555;DHT22;9924;50.828;6.440;2022-07-25T14:05:33;30.20;97.70
19555;DHT22;9924;50.828;6.440;2022-07-25T14:07:59;30.00;97.90
19555;DHT22;9924;50.828;6.440;2022-07-25T14:10:25;29.70;98.40
19555;DHT22;9924;50.828;6.440;2022-07-25T14:12:52;29.60;98.70
19555;DHT22;9924;50.828;6.440;2022-07-25T14:15:18;29.50;99.30
19555;DHT22;9924;50.828;6.440;2022-07-25T14:17:44;29.50;99.00
19555;DHT22;9924;50.828;6.440;2022-07-25T14:20:10;29.50;99.30
19555;DHT22;9924;50.828;6.440;2022-07-25T14:22:37;29.30;99.30
19555;DHT22;9924;50.828;6.440;2022-07-25T14:25:05;29.30;99.30
19555;DHT22;9924;50.828;6.440;2022-07-25T14:27:32;29.10;99.20
19555;DHT22;9924;50.828;6.440;2022-07-25T14:29:57;28.90;99.70
19555;DHT22;9924;50.828;6.440;2022-07-25T14:32:23;28.70;99.90
19555;DHT22;9924;50.828;6.440;2022-07-25T14:34:49;28.40;99.90
19555;DHT22;9924;50.828;6.440;2022-07-25T14:37:17;27.90;99.90
19555;DHT22;9924;50.828;6.440;2022-07-25T14:39:43;27.70;99.90
19555;DHT22;9924;50.828;6.440;2022-07-25T14:42:09;27.50;99.90
19555;DHT22;9924;50.828;6.440;2022-07-25T14:44:36;27.50;99.90
19555;DHT22;9924;50.828;6.440;2022-07-25T14:47:03;27.30;99.90
19555;DHT22;9924;50.828;6.440;2022-07-25T14:49:30;27.00;99.90
19555;DHT22;9924;50.828;6.440;2022-07-25T14:51:55;26.90;99.90
19555;DHT22;9924;50.828;6.440;2022-07-25T14:54:21;26.90;99.90
19555;DHT22;9924;50.828;6.440;2022-07-25T14:56:47;27.00;99.90
19555;DHT22;9924;50.828;6.440;2022-07-25T14:59:13;27.00;99.90
19555;DHT22;9924;50.828;6.440;2022-07-25T15:01:39;26.90;99.90
19555;DHT22;9924;50.828;6.440;2022-07-25T15:04:05;26.80;99.90
19555;DHT22;9924;50.828;6.440;2022-07-25T15:06:31;26.60;99.90
19555;DHT22;9924;50.828;6.440;2022-07-25T15:08:56;26.30;99.90
19555;DHT22;9924;50.828;6.440;2022-07-25T15:11:22;26.00;99.90
19555;DHT22;9924;50.828;6.440;2022-07-25T15:13:49;25.80;99.90
19555;DHT22;9924;50.828;6.440;2022-07-25T15:16:16;25.70;99.90
19555;DHT22;9924;50.828;6.440;2022-07-25T15:18:42;25.70;99.90
19555;DHT22;9924;50.828;6.440;2022-07-25T15:21:11;25.60;99.90
19555;DHT22;9924;50.828;6.440;2022-07-25T15:23:37;25.40;99.90
19555;DHT22;9924;50.828;6.440;2022-07-25T15:26:04;25.40;99.90
19555;DHT22;9924;50.828;6.440;2022-07-25T15:28:31;25.40;99.90
19555;DHT22;9924;50.828;6.440;2022-07-25T15:30:58;25.40;99.90
19555;DHT22;9924;50.828;6.440;2022-07-25T15:33:24;25.70;99.90
19555;DHT22;9924;50.828;6.440;2022-07-25T15:35:50;26.00;99.90
19555;DHT22;9924;50.828;6.440;2022-07-25T15:38:16;26.80;99.90
19555;DHT22;9924;50.828;6.440;2022-07-25T15:40:45;27.50;99.90
19555;DHT22;9924;50.828;6.440;2022-07-25T15:43:12;28.20;99.90
19555;DHT22;9924;50.828;6.440;2022-07-25T15:45:43;28.40;99.90
19555;DHT22;9924;50.828;6.440;2022-07-25T15:48:11;28.40;99.90
19555;DHT22;9924;50.828;6.440;2022-07-25T15:50:39;28.00;99.90
19555;DHT22;9924;50.828;6.440;2022-07-25T15:53:05;28.00;99.90
19555;DHT22;9924;50.828;6.440;2022-07-25T15:55:32;28.00;99.90
19555;DHT22;9924;50.828;6.440;2022-07-25T15:57:59;28.30;99.90
19555;DHT22;9924;50.828;6.440;2022-07-25T16:00:25;28.50;99.90
19555;DHT22;9924;50.828;6.440;2022-07-25T16:02:51;28.50;99.90
19555;DHT22;9924;50.828;6.440;2022-07-25T16:05:17;28.90;99.70